createdAt,value
2023-12-20T00:00:20.196Z,222.45
2023-12-20T00:02:49.830Z,193.65
2023-12-20T00:05:21.036Z,199.93
2023-12-20T00:07:51.312Z,225.38
2023-12-20T00:10:21.403Z,223.25
2023-12-20T00:12:52.198Z,214.60
2023-12-20T00:15:21.653Z,212.23
2023-12-20T00:17:51.301Z,208.68
2023-12-20T00:20:20.006Z,203.55
2023-12-20T00:22:48.420Z,206.18
2023-12-20T00:25:18.950Z,214.90
2023-12-20T00:27:49.805Z,211.55
2023-12-20T00:30:18.711Z,206.73
2023-12-20T00:35:18.299Z,215.80
2023-12-20T00:37:48.317Z,203.45
2023-12-20T00:40:19.160Z,206.10
2023-12-20T00:42:49.419Z,206.02
2023-12-20T00:45:17.908Z,210.27
2023-12-20T00:47:46.815Z,217.95
2023-12-20T00:50:15.642Z,207.93
2023-12-20T00:52:46.563Z,207.15
2023-12-20T00:55:14.979Z,230.07
2023-12-20T00:57:46.086Z,220.07
2023-12-20T01:00:16.278Z,200.30
2023-12-20T01:02:46.108Z,204.32
2023-12-20T01:05:17.039Z,201.55
2023-12-20T01:07:46.760Z,210.55
2023-12-20T01:10:15.621Z,216.98
2023-12-20T01:12:46.817Z,225.40
2023-12-20T01:15:16.708Z,238.77
2023-12-20T01:17:45.298Z,228.60
2023-12-20T01:20:16.835Z,241.57
2023-12-20T01:22:47.123Z,266.33
2023-12-20T01:25:17.025Z,266.20
2023-12-20T01:27:48.264Z,270.45
2023-12-20T01:30:19.443Z,290.77
2023-12-20T01:32:48.983Z,299.40
2023-12-20T01:35:17.337Z,293.15
2023-12-20T01:37:48.349Z,316.92
2023-12-20T01:40:18.109Z,312.00
2023-12-20T01:42:50.237Z,325.38
2023-12-20T01:45:19.802Z,350.15
2023-12-20T01:47:49.851Z,346.80
2023-12-20T01:50:18.995Z,356.75
2023-12-20T01:52:49.101Z,393.08
2023-12-20T01:55:19.111Z,386.20
2023-12-20T01:57:51.396Z,399.40
2023-12-20T02:00:24.346Z,395.48
2023-12-20T02:02:56.253Z,412.67
2023-12-20T02:05:28.981Z,400.80
2023-12-20T02:07:59.906Z,405.77
2023-12-20T02:10:31.830Z,420.95
2023-12-20T02:13:04.079Z,393.15
2023-12-20T02:15:33.959Z,393.80
2023-12-20T02:18:03.716Z,399.83
2023-12-20T02:20:33.289Z,378.27
2023-12-20T02:23:04.376Z,396.08
2023-12-20T02:25:33.962Z,394.70
2023-12-20T02:28:02.742Z,388.40
2023-12-20T02:30:32.342Z,398.48
2023-12-20T02:33:03.242Z,392.83
2023-12-20T02:35:32.823Z,358.63
2023-12-20T02:38:04.194Z,381.27
2023-12-20T02:40:33.840Z,380.70
2023-12-20T02:43:02.448Z,368.08
2023-12-20T02:45:31.915Z,351.77
2023-12-20T02:48:00.457Z,370.70
2023-12-20T02:50:28.906Z,368.55
2023-12-20T02:52:59.687Z,388.70
2023-12-20T02:55:30.724Z,402.60
2023-12-20T02:57:59.285Z,386.08
2023-12-20T03:00:28.859Z,383.33
2023-12-20T03:02:58.483Z,400.88
2023-12-20T03:05:26.899Z,363.92
2023-12-20T03:07:57.052Z,374.45
2023-12-20T03:10:27.416Z,369.48
2023-12-20T03:12:59.950Z,410.15
2023-12-20T03:15:29.692Z,406.35
2023-12-20T03:18:00.345Z,394.20
2023-12-20T03:20:29.925Z,384.27
2023-12-20T03:22:59.471Z,391.90
2023-12-20T03:25:29.224Z,420.20
2023-12-20T03:28:00.246Z,424.33
2023-12-20T03:30:29.864Z,433.50
2023-12-20T03:32:59.572Z,416.55
2023-12-20T03:35:29.892Z,412.80
2023-12-20T03:38:01.221Z,447.23
2023-12-20T03:40:32.371Z,452.38
2023-12-20T03:43:03.374Z,452.00
2023-12-20T03:45:33.003Z,438.70
2023-12-20T03:48:02.749Z,451.00
2023-12-20T03:50:33.560Z,448.38
2023-12-20T03:53:03.169Z,416.77
2023-12-20T03:55:31.452Z,396.33
2023-12-20T03:57:59.847Z,394.38
2023-12-20T04:00:30.857Z,409.10
2023-12-20T04:03:01.609Z,442.75
2023-12-20T04:05:31.096Z,404.48
2023-12-20T04:08:03.457Z,427.80
2023-12-20T04:10:33.392Z,439.55
2023-12-20T04:13:04.146Z,448.25
2023-12-20T04:15:35.601Z,449.55
2023-12-20T04:18:06.770Z,476.35
2023-12-20T04:20:36.487Z,482.55
2023-12-20T04:23:07.764Z,456.67
2023-12-20T04:25:38.796Z,427.63
2023-12-20T04:28:08.826Z,443.60
2023-12-20T04:30:40.928Z,435.67
2023-12-20T04:33:09.338Z,437.35
2023-12-20T04:35:39.240Z,430.15
2023-12-20T04:38:07.685Z,476.05
2023-12-20T04:40:36.140Z,490.08
2023-12-20T04:43:04.606Z,482.50
2023-12-20T04:45:35.484Z,449.75
2023-12-20T04:48:07.685Z,462.83
2023-12-20T04:50:36.225Z,461.85
2023-12-20T04:53:06.108Z,476.73
2023-12-20T04:55:34.781Z,475.05
2023-12-20T04:58:03.202Z,443.33
2023-12-20T05:00:34.032Z,467.08
2023-12-20T05:03:06.366Z,475.95
2023-12-20T05:05:35.607Z,497.15
2023-12-20T05:08:05.419Z,496.17
2023-12-20T05:10:35.294Z,487.08
2023-12-20T05:13:03.946Z,469.40
2023-12-20T05:15:33.698Z,459.70
2023-12-20T05:18:03.279Z,476.90
2023-12-20T05:20:33.104Z,505.35
2023-12-20T05:23:05.269Z,493.80
2023-12-20T05:25:34.885Z,440.75
2023-12-20T05:28:05.871Z,445.77
2023-12-20T05:30:34.261Z,440.98
2023-12-20T05:33:02.694Z,453.38
2023-12-20T05:35:32.676Z,369.77
2023-12-20T05:38:01.002Z,364.50
2023-12-20T05:40:30.949Z,357.27
2023-12-20T05:42:59.434Z,353.02
2023-12-20T05:45:30.332Z,363.83
2023-12-20T05:48:00.498Z,363.48
2023-12-20T05:52:59.749Z,332.02
2023-12-20T05:55:29.316Z,351.42
2023-12-20T05:57:58.872Z,346.25
2023-12-20T06:00:28.509Z,337.38
2023-12-20T06:02:58.032Z,359.08
2023-12-20T06:05:26.428Z,377.15
2023-12-20T06:07:55.715Z,393.67
2023-12-20T06:10:28.101Z,375.27
2023-12-20T06:12:59.627Z,370.65
2023-12-20T06:15:29.101Z,382.88
2023-12-20T06:17:59.809Z,424.50
2023-12-20T06:20:29.490Z,415.15
2023-12-20T06:23:00.226Z,420.55
2023-12-20T06:25:31.124Z,420.02
2023-12-20T06:28:00.797Z,434.83
2023-12-20T06:30:29.142Z,392.92
2023-12-20T06:32:59.978Z,370.55
2023-12-20T06:35:28.360Z,413.35
2023-12-20T06:37:56.977Z,393.52
2023-12-20T06:40:25.394Z,404.60
2023-12-20T06:43:02.240Z,406.73
2023-12-20T06:45:38.501Z,384.75
2023-12-20T06:48:08.066Z,400.35
2023-12-20T06:50:42.197Z,393.60
2023-12-20T06:55:41.103Z,365.52
2023-12-20T06:58:11.043Z,369.52
2023-12-20T07:00:40.740Z,362.42
2023-12-20T07:03:11.636Z,380.88
2023-12-20T07:05:40.101Z,379.48
2023-12-20T07:08:09.549Z,349.38
2023-12-20T07:10:39.149Z,337.45
2023-12-20T07:13:10.259Z,337.13
2023-12-20T07:15:41.954Z,343.65
2023-12-20T07:18:11.682Z,354.35
2023-12-20T07:20:40.116Z,367.10
2023-12-20T07:23:11.021Z,337.13
2023-12-20T07:25:40.566Z,355.77
2023-12-20T07:28:09.305Z,358.55
2023-12-20T07:30:40.197Z,317.58
2023-12-20T07:33:10.346Z,310.27
2023-12-20T07:35:40.034Z,305.52
2023-12-20T07:38:08.668Z,324.55
2023-12-20T07:40:37.057Z,322.50
2023-12-20T07:43:07.165Z,328.52
2023-12-20T07:45:35.711Z,315.23
2023-12-20T07:48:09.429Z,328.73
2023-12-20T07:50:39.122Z,334.63
2023-12-20T07:53:08.996Z,316.02
2023-12-20T07:55:39.788Z,314.85
2023-12-20T07:58:09.298Z,306.38
2023-12-20T08:00:39.337Z,295.85
2023-12-20T08:03:10.341Z,303.08
2023-12-20T08:05:41.718Z,306.02
2023-12-20T08:08:10.119Z,309.75
2023-12-20T08:10:39.639Z,304.83
2023-12-20T08:13:09.802Z,305.60
2023-12-20T08:15:43.184Z,299.17
2023-12-20T08:18:12.952Z,299.48
2023-12-20T08:20:42.607Z,299.42
2023-12-20T08:23:12.234Z,304.50
2023-12-20T08:25:41.735Z,302.02
2023-12-20T08:28:12.616Z,306.02
2023-12-20T08:30:41.791Z,294.45
2023-12-20T08:33:14.393Z,295.58
2023-12-20T08:35:53.201Z,298.02
2023-12-20T08:38:23.577Z,295.75
2023-12-20T08:50:23.463Z,305.45
2023-12-20T08:52:58.406Z,301.10
2023-12-20T08:55:32.840Z,305.83
2023-12-20T08:58:03.182Z,305.02
2023-12-20T09:00:35.709Z,304.27
2023-12-20T09:03:05.408Z,307.88
2023-12-20T09:05:39.721Z,302.63
2023-12-20T09:08:11.142Z,304.10
2023-12-20T09:10:46.351Z,313.75
2023-12-20T09:13:23.455Z,300.48
2023-12-20T09:15:54.449Z,314.95
2023-12-20T09:18:23.072Z,310.90
2023-12-20T09:20:53.263Z,316.75
2023-12-20T09:23:23.202Z,310.02
2023-12-20T09:25:52.942Z,308.73
2023-12-20T09:28:23.534Z,308.05
2023-12-20T09:30:52.603Z,314.48
2023-12-20T09:33:22.316Z,310.55
2023-12-20T09:35:53.615Z,313.40
2023-12-20T09:38:25.262Z,312.73
2023-12-20T09:40:57.091Z,307.40
2023-12-20T09:43:31.799Z,306.90
2023-12-20T09:46:08.311Z,297.05
2023-12-20T09:48:44.714Z,296.98
2023-12-20T09:51:23.369Z,310.45
2023-12-20T09:53:59.440Z,305.98
2023-12-20T09:56:31.837Z,306.60
2023-12-20T09:59:02.524Z,310.05
2023-12-20T10:01:34.959Z,314.98
2023-12-20T10:04:23.471Z,320.35
2023-12-20T10:07:07.655Z,327.35
2023-12-20T10:09:38.078Z,331.35
2023-12-20T10:12:11.095Z,339.88
2023-12-20T10:14:44.834Z,328.90
2023-12-20T10:17:15.592Z,341.38
2023-12-20T10:19:47.118Z,360.67
2023-12-20T10:22:18.189Z,340.70
2023-12-20T10:24:56.775Z,336.70
2023-12-20T10:27:29.698Z,342.17
2023-12-20T10:30:04.625Z,318.40
2023-12-20T10:32:33.961Z,322.75
2023-12-20T10:35:05.065Z,325.30
2023-12-20T10:37:41.314Z,322.88
2023-12-20T10:40:12.880Z,339.83
2023-12-20T10:42:44.330Z,345.08
2023-12-20T10:45:15.788Z,324.00
2023-12-20T10:47:49.744Z,331.42
2023-12-20T10:50:21.920Z,329.27
2023-12-20T10:52:56.810Z,300.92
2023-12-20T10:55:27.897Z,286.48
2023-12-20T10:58:03.992Z,286.58
2023-12-20T11:00:34.751Z,304.27
2023-12-20T11:03:06.085Z,303.58
2023-12-20T11:05:49.804Z,320.40
2023-12-20T11:08:29.156Z,316.20
2023-12-20T11:11:04.888Z,316.30
2023-12-20T11:13:39.216Z,306.00
2023-12-20T11:16:10.396Z,315.92
2023-12-20T11:18:42.676Z,313.48
2023-12-20T11:21:16.486Z,320.02
2023-12-20T11:27:27.107Z,308.92
2023-12-20T11:30:03.610Z,323.40
2023-12-20T11:32:33.327Z,310.40
2023-12-20T11:35:20.115Z,312.77
2023-12-20T11:37:49.974Z,318.63
2023-12-20T11:40:23.502Z,325.52
2023-12-20T11:42:53.982Z,314.25
2023-12-20T11:45:30.857Z,318.50
2023-12-20T11:48:01.253Z,320.25
2023-12-20T11:53:03.205Z,314.95
2023-12-20T11:55:33.497Z,298.13
2023-12-20T11:58:08.165Z,298.65
2023-12-20T12:00:40.058Z,310.83
2023-12-20T12:03:11.291Z,305.95
2023-12-20T12:05:43.006Z,302.38
2023-12-20T12:08:11.948Z,303.35
2023-12-20T12:10:42.084Z,296.83
2023-12-20T12:13:12.046Z,292.75
2023-12-20T12:15:46.496Z,289.88
2023-12-20T12:18:20.014Z,288.70
2023-12-20T12:20:50.571Z,287.17
2023-12-20T12:23:27.248Z,291.00
2023-12-20T12:26:00.244Z,305.60
2023-12-20T12:28:30.579Z,336.15
2023-12-20T12:31:03.161Z,324.88
2023-12-20T12:33:32.656Z,304.15
2023-12-20T12:36:03.812Z,302.00
2023-12-20T12:38:33.502Z,312.48
2023-12-20T12:41:03.797Z,311.52
2023-12-20T12:43:33.483Z,304.83
2023-12-20T12:46:10.045Z,296.98
2023-12-20T12:48:43.251Z,307.38
2023-12-20T12:51:16.077Z,294.15
2023-12-20T12:53:44.593Z,296.40
2023-12-20T12:56:16.574Z,295.17
2023-12-20T12:58:47.150Z,298.30
2023-12-20T13:01:17.233Z,305.17
2023-12-20T13:03:48.321Z,307.58
2023-12-20T13:06:18.790Z,305.85
2023-12-20T13:08:52.018Z,318.02
2023-12-20T13:11:20.924Z,309.92
2023-12-20T13:16:21.081Z,300.95
2023-12-20T13:18:50.810Z,308.23
2023-12-20T13:21:22.018Z,310.42
2023-12-20T13:23:51.435Z,307.60
2023-12-20T13:26:20.999Z,321.63
2023-12-20T13:28:50.567Z,324.67
2023-12-20T13:31:21.965Z,320.27
2023-12-20T13:33:50.578Z,328.05
2023-12-20T13:36:21.815Z,321.05
2023-12-20T13:38:51.519Z,329.70
2023-12-20T13:41:21.196Z,333.63
2023-12-20T13:43:49.414Z,330.55
2023-12-20T13:46:21.107Z,321.50
2023-12-20T13:48:49.539Z,327.85
2023-12-20T13:51:20.469Z,337.17
2023-12-20T13:53:50.796Z,336.00
2023-12-20T13:56:22.531Z,333.33
2023-12-20T13:58:52.885Z,334.27
2023-12-20T14:01:25.518Z,335.35
2023-12-20T14:03:56.370Z,335.17
2023-12-20T14:06:26.340Z,338.02
2023-12-20T14:08:56.200Z,340.80
2023-12-20T14:11:26.008Z,333.15
2023-12-20T14:13:59.920Z,329.77
2023-12-20T14:16:30.786Z,324.58
2023-12-20T14:19:00.620Z,313.30
2023-12-20T14:21:29.351Z,311.23
2023-12-20T14:23:57.639Z,311.38
2023-12-20T14:26:29.059Z,310.17
2023-12-20T14:28:58.666Z,301.55
2023-12-20T14:31:28.219Z,298.77
2023-12-20T14:34:00.836Z,295.95
2023-12-20T14:36:32.833Z,293.48
2023-12-20T14:39:04.055Z,297.17
2023-12-20T14:41:32.950Z,296.35
2023-12-20T14:44:05.902Z,292.63
2023-12-20T14:46:38.168Z,298.25
2023-12-20T14:49:10.697Z,296.92
2023-12-20T14:51:41.502Z,299.10
2023-12-20T14:54:11.658Z,302.63
2023-12-20T14:56:41.354Z,304.10
2023-12-20T14:59:12.835Z,298.73
2023-12-20T15:01:43.300Z,307.15
2023-12-20T15:04:15.139Z,312.67
2023-12-20T15:06:45.873Z,316.08
2023-12-20T15:09:15.726Z,332.33
2023-12-20T15:11:45.197Z,332.10
2023-12-20T15:14:16.329Z,329.52
2023-12-20T15:16:45.252Z,339.90
2023-12-20T15:19:18.662Z,339.27
2023-12-20T15:21:49.034Z,330.95
2023-12-20T15:24:21.959Z,333.27
2023-12-20T15:26:51.778Z,322.02
2023-12-20T15:29:21.265Z,322.23
2023-12-20T15:31:51.504Z,318.67
2023-12-20T15:34:24.246Z,328.17
2023-12-20T15:36:54.131Z,335.00
2023-12-20T15:39:24.358Z,344.98
2023-12-20T15:41:54.661Z,347.10
2023-12-20T15:44:24.986Z,367.10
2023-12-20T15:46:55.607Z,370.42
2023-12-20T15:49:25.732Z,372.58
2023-12-20T15:51:55.873Z,346.10
2023-12-20T15:54:24.577Z,343.30
2023-12-20T15:56:55.769Z,342.77
2023-12-20T15:59:25.233Z,378.20
2023-12-20T16:01:55.182Z,373.88
2023-12-20T16:04:25.058Z,379.52
2023-12-20T16:06:56.165Z,376.50
2023-12-20T16:09:25.772Z,366.73
2023-12-20T16:11:56.444Z,383.45
2023-12-20T16:14:30.948Z,389.48
2023-12-20T16:17:01.099Z,397.05
2023-12-20T16:19:31.934Z,393.92
2023-12-20T16:22:04.765Z,402.05
2023-12-20T16:24:37.901Z,393.55
2023-12-20T16:27:07.930Z,414.80
2023-12-20T16:29:39.065Z,421.13
2023-12-20T16:32:09.058Z,413.52
2023-12-20T16:34:40.346Z,441.90
2023-12-20T16:37:10.340Z,433.65
2023-12-20T16:39:39.785Z,420.30
2023-12-20T16:42:11.145Z,413.27
2023-12-20T16:44:44.306Z,402.98
2023-12-20T16:47:14.294Z,403.65
2023-12-20T16:49:45.442Z,429.25
2023-12-20T16:52:15.559Z,466.55
2023-12-20T16:54:45.389Z,458.40
2023-12-20T16:57:16.119Z,477.83
2023-12-20T16:59:45.841Z,491.17
2023-12-20T17:02:16.942Z,497.83
2023-12-20T17:04:48.415Z,490.90
2023-12-20T17:07:18.085Z,458.00
2023-12-20T17:09:49.759Z,460.25
2023-12-20T17:12:19.972Z,438.35
2023-12-20T17:14:50.100Z,405.33
2023-12-20T17:19:59.132Z,399.30
2023-12-20T17:22:39.671Z,397.17
2023-12-20T17:25:12.781Z,399.30
2023-12-20T17:27:42.189Z,382.83
2023-12-20T17:30:14.199Z,365.33
2023-12-20T17:32:50.793Z,340.05
2023-12-20T17:35:43.343Z,338.75
2023-12-20T17:41:21.890Z,320.08
2023-12-20T17:43:53.228Z,327.83
2023-12-20T17:46:23.545Z,333.15
2023-12-20T17:48:54.303Z,316.70
2023-12-20T17:51:25.885Z,330.50
2023-12-20T17:53:57.813Z,322.08
2023-12-20T17:56:28.545Z,314.25
2023-12-20T17:59:01.442Z,283.08
2023-12-20T18:01:31.708Z,275.73
2023-12-20T18:04:02.377Z,273.20
2023-12-20T18:06:33.111Z,274.42
2023-12-20T18:09:03.826Z,271.85
2023-12-20T18:11:35.205Z,269.10
2023-12-20T18:14:08.599Z,256.40
2023-12-20T18:16:40.015Z,250.18
2023-12-20T18:19:10.423Z,256.08
2023-12-20T18:21:46.372Z,258.77
2023-12-20T18:24:15.447Z,259.55
2023-12-20T18:26:47.692Z,261.75
2023-12-20T18:29:19.324Z,254.90
2023-12-20T18:31:49.980Z,267.25
2023-12-20T18:34:23.093Z,269.00
2023-12-20T18:36:55.763Z,288.27
2023-12-20T18:39:28.564Z,275.67
2023-12-20T18:41:59.912Z,281.58
2023-12-20T18:44:30.333Z,254.63
2023-12-20T18:46:59.096Z,258.88
2023-12-20T18:49:38.207Z,259.95
2023-12-20T18:52:10.628Z,266.25
2023-12-20T18:54:42.447Z,263.73
2023-12-20T18:57:11.706Z,265.38
2023-12-20T18:59:44.200Z,256.02
2023-12-20T19:02:15.845Z,255.20
2023-12-20T19:04:46.889Z,255.02
2023-12-20T19:07:19.618Z,262.63
2023-12-20T19:09:51.051Z,264.48
2023-12-20T19:12:23.007Z,270.13
2023-12-20T19:14:52.796Z,269.92
2023-12-20T19:17:24.439Z,281.85
2023-12-20T19:19:59.238Z,281.65
2023-12-20T19:22:34.121Z,268.13
2023-12-20T19:25:08.148Z,282.77
2023-12-20T19:27:39.688Z,273.60
2023-12-20T19:30:10.963Z,267.23
2023-12-20T19:32:41.823Z,270.00
2023-12-20T19:35:12.026Z,270.67
2023-12-20T19:37:44.500Z,272.55
2023-12-20T19:40:14.114Z,270.58
2023-12-20T19:42:43.348Z,280.88
2023-12-20T19:45:16.333Z,278.38
2023-12-20T19:47:51.543Z,279.85
2023-12-20T19:50:27.788Z,283.73
2023-12-20T19:53:00.587Z,285.38
2023-12-20T19:55:31.630Z,287.67
2023-12-20T19:58:01.902Z,296.08
2023-12-20T20:00:42.008Z,283.58
2023-12-20T20:03:20.135Z,295.90
2023-12-20T20:05:50.605Z,275.42
2023-12-20T20:08:22.310Z,263.30
2023-12-20T20:10:52.331Z,284.13
2023-12-20T20:15:51.650Z,269.35
2023-12-20T20:18:22.402Z,294.45
2023-12-20T20:20:53.017Z,279.35
2023-12-20T20:23:28.981Z,273.50
2023-12-20T20:26:00.642Z,276.15
2023-12-20T20:28:30.060Z,280.42
2023-12-20T20:31:00.891Z,305.15
2023-12-20T20:33:32.044Z,299.27
2023-12-20T20:36:03.768Z,289.35
2023-12-20T20:38:35.147Z,287.65
2023-12-20T20:41:05.457Z,292.90
2023-12-20T20:43:34.281Z,288.27
2023-12-20T20:46:06.053Z,281.73
2023-12-20T20:48:44.635Z,280.60
2023-12-20T20:51:21.104Z,277.10
2023-12-20T20:56:47.100Z,247.27
2023-12-20T20:59:17.332Z,257.45
2023-12-20T21:01:48.455Z,283.83
2023-12-20T21:04:19.961Z,283.23
2023-12-20T21:06:49.910Z,283.58
2023-12-20T21:09:22.976Z,297.90
2023-12-20T21:11:52.888Z,278.77
2023-12-20T21:14:24.484Z,277.45
2023-12-20T21:16:54.889Z,273.13
2023-12-20T21:19:24.592Z,287.60
2023-12-20T21:21:55.662Z,298.55
2023-12-20T21:24:29.467Z,281.55
2023-12-20T21:27:00.412Z,268.05
2023-12-20T21:29:32.712Z,265.65
2023-12-20T21:32:02.531Z,270.98
2023-12-20T21:34:32.318Z,284.10
2023-12-20T21:37:02.318Z,279.83
2023-12-20T21:39:34.127Z,272.83
2023-12-20T21:42:05.241Z,297.42
2023-12-20T21:44:35.405Z,305.20
2023-12-20T21:47:04.440Z,300.55
2023-12-20T21:49:34.439Z,301.27
2023-12-20T21:52:06.334Z,302.80
2023-12-20T21:54:39.699Z,306.75
2023-12-20T21:57:09.843Z,299.98
2023-12-20T21:59:42.340Z,299.92
2023-12-20T22:02:16.531Z,304.77
2023-12-20T22:04:45.706Z,322.52
2023-12-20T22:07:16.129Z,323.10
2023-12-20T22:09:49.225Z,309.48
2023-12-20T22:12:20.172Z,315.02
2023-12-20T22:14:50.420Z,321.02
2023-12-20T22:17:19.488Z,319.13
2023-12-20T22:19:50.110Z,320.38
2023-12-20T22:22:23.649Z,318.20
2023-12-20T22:24:55.055Z,322.50
2023-12-20T22:27:24.841Z,319.85
2023-12-20T22:29:54.655Z,315.52
2023-12-20T22:32:24.206Z,301.00
2023-12-20T22:34:52.714Z,311.30
2023-12-20T22:37:22.399Z,311.67
2023-12-20T22:39:53.220Z,309.15
2023-12-20T22:42:22.492Z,326.55
2023-12-20T22:44:56.135Z,324.15
2023-12-20T22:47:27.305Z,310.15
2023-12-20T22:49:58.382Z,308.92
2023-12-20T22:52:28.813Z,320.20
2023-12-20T22:55:01.401Z,323.23
2023-12-20T22:57:31.178Z,354.60
2023-12-20T23:00:02.122Z,319.33
2023-12-20T23:02:36.631Z,337.00
2023-12-20T23:05:07.723Z,322.15
2023-12-20T23:07:36.924Z,333.30
2023-12-20T23:10:10.925Z,326.52
2023-12-20T23:12:41.646Z,339.27
2023-12-20T23:15:12.920Z,347.52
2023-12-20T23:17:44.109Z,341.10
2023-12-20T23:20:15.152Z,355.98
2023-12-20T23:22:45.512Z,340.65
2023-12-20T23:25:17.834Z,353.73
2023-12-20T23:27:51.846Z,356.30
2023-12-20T23:30:22.413Z,341.73
2023-12-20T23:32:54.208Z,348.67
2023-12-20T23:35:24.192Z,346.35
2023-12-20T23:37:53.980Z,337.30
2023-12-20T23:40:30.141Z,355.65
2023-12-20T23:42:59.110Z,336.90
2023-12-20T23:45:29.004Z,323.15
2023-12-20T23:48:00.532Z,326.02
2023-12-20T23:50:30.285Z,391.98
2023-12-20T23:53:02.896Z,319.75
2023-12-20T23:55:37.788Z,314.95
2023-12-20T23:58:07.831Z,331.17
